Time;durP1;ratioP1;P1;durP2;ratioP2;P2;SDS_P1;SDS_P2;PMS_P1;PMS_P2;Temp;Humidity;BMP_temperature;BMP_pressure;BME280_temperature;BME280_humidity;BME280_pressure;Samples;Min_cycle;Max_cycle;Signal;HPM_P1;HPM_P2
2023/06/23 00:02:19;;;;;;;0.20;0.20;;;18.50;99.90;;;;;;5009809;28;20049;-78
2023/06/23 00:04:45;;;;;;;0.20;0.20;;;18.50;99.90;;;;;;5027509;28;20044;-78
2023/06/23 00:07:11;;;;;;;0.20;0.20;;;18.50;99.90;;;;;;5029697;28;20048;-77
2023/06/23 00:09:37;;;;;;;0.20;0.20;;;18.50;99.90;;;;;;5004818;28;20050;-78
2023/06/23 00:12:07;;;;;;;0.20;0.20;;;18.50;99.90;;;;;;5004593;28;20076;-78
2023/06/23 00:14:34;;;;;;;0.20;0.20;;;18.50;99.90;;;;;;5014749;28;20381;-78
2023/06/23 00:17:00;;;;;;;0.20;0.20;;;18.40;99.90;;;;;;5030558;28;20061;-78
2023/06/23 00:19:25;;;;;;;0.20;0.20;;;18.40;99.90;;;;;;5020492;28;20401;-78
2023/06/23 00:21:52;;;;;;;0.13;0.13;;;18.50;99.90;;;;;;5020044;28;20129;-78
2023/06/23 00:24:17;;;;;;;0.10;0.10;;;18.40;99.90;;;;;;5008436;28;20046;-78
2023/06/23 00:26:43;;;;;;;0.10;0.10;;;18.50;99.90;;;;;;5018652;28;20045;-77
2023/06/23 00:29:10;;;;;;;0.20;0.20;;;18.40;99.90;;;;;;5010969;28;20042;-78
2023/06/23 00:31:36;;;;;;;0.20;0.20;;;18.50;99.90;;;;;;5001595;28;20042;-78
2023/06/23 00:34:02;;;;;;;0.20;0.20;;;18.40;99.90;;;;;;5024664;28;20048;-78
2023/06/23 00:36:30;;;;;;;0.20;0.20;;;18.50;99.90;;;;;;5017225;28;20042;-78
2023/06/23 00:38:56;;;;;;;0.20;0.20;;;18.40;99.90;;;;;;5010151;28;20100;-78
2023/06/23 00:41:22;;;;;;;0.20;0.20;;;18.40;99.90;;;;;;5009431;28;20177;-78
2023/06/23 00:43:50;;;;;;;0.20;0.20;;;18.40;99.90;;;;;;5006666;28;20069;-79
2023/06/23 00:46:17;;;;;;;0.20;0.20;;;18.40;99.90;;;;;;5009583;28;20054;-78
2023/06/23 00:48:43;;;;;;;0.20;0.20;;;18.40;99.90;;;;;;5009442;28;20061;-78
2023/06/23 00:51:09;;;;;;;0.10;0.10;;;18.40;99.90;;;;;;5009886;28;20033;-78
2023/06/23 00:53:35;;;;;;;0.13;0.13;;;18.40;99.90;;;;;;5011535;28;20054;-78
2023/06/23 00:56:01;;;;;;;0.20;0.20;;;18.40;99.90;;;;;;5013582;28;20110;-78
2023/06/23 00:58:29;;;;;;;0.20;0.20;;;18.30;99.90;;;;;;5029739;28;20638;-78
2023/06/23 01:00:56;;;;;;;0.10;0.10;;;18.30;99.90;;;;;;5023829;28;20124;-78
2023/06/23 01:03:22;;;;;;;0.20;0.20;;;18.30;99.90;;;;;;5008672;28;20053;-79
2023/06/23 01:05:49;;;;;;;0.10;0.10;;;18.30;99.90;;;;;;5007356;28;20034;-78
2023/06/23 01:08:18;;;;;;;0.20;0.20;;;18.30;99.90;;;;;;5002397;28;20050;-78
2023/06/23 01:11:08;;;;;;;0.17;0.17;;;18.30;99.90;;;;;;5005259;28;20379;-78
2023/06/23 01:13:37;;;;;;;0.10;0.10;;;18.30;99.90;;;;;;4998052;28;20050;-78
2023/06/23 01:16:37;;;;;;;0.20;0.20;;;18.20;99.90;;;;;;5019323;28;20057;-78
2023/06/23 01:20:12;;;;;;;0.20;0.20;;;18.20;99.90;;;;;;5010197;28;20440;-78
2023/06/23 01:22:46;;;;;;;0.20;0.20;;;18.20;99.90;;;;;;4942667;29;20082;-78
2023/06/23 01:25:46;;;;;;;0.20;0.20;;;18.20;99.90;;;;;;4929746;29;20047;-78
2023/06/23 01:28:39;;;;;;;0.10;0.10;;;18.20;99.90;;;;;;5006986;28;20168;-77
2023/06/23 01:31:07;;;;;;;0.20;0.20;;;18.20;99.90;;;;;;5004898;28;20512;-78
2023/06/23 01:33:41;;;;;;;0.20;0.20;;;18.20;99.90;;;;;;5012229;28;20087;-78
2023/06/23 01:36:11;;;;;;;0.20;0.20;;;18.20;99.90;;;;;;5010023;28;20129;-78
2023/06/23 01:38:43;;;;;;;0.20;0.20;;;18.20;99.90;;;;;;5000303;28;20038;-77
2023/06/23 01:41:19;;;;;;;0.20;0.20;;;18.20;99.90;;;;;;5007802;28;20085;-78
2023/06/23 01:43:48;;;;;;;0.10;0.10;;;18.20;99.90;;;;;;5014778;28;20104;-78
2023/06/23 01:46:25;;;;;;;0.20;0.20;;;18.20;99.90;;;;;;5009545;28;20108;-78
2023/06/23 01:48:56;;;;;;;0.20;0.20;;;18.20;99.90;;;;;;5006463;28;20144;-78
2023/06/23 01:51:26;;;;;;;0.20;0.20;;;18.20;99.90;;;;;;5005500;28;20049;-78
2023/06/23 01:53:54;;;;;;;0.20;0.20;;;18.10;99.90;;;;;;5015841;28;20046;-78
2023/06/23 01:56:21;;;;;;;0.17;0.17;;;18.10;99.90;;;;;;5010408;28;20052;-78
2023/06/23 01:58:48;;;;;;;0.20;0.20;;;18.10;99.90;;;;;;5005337;28;20101;-78
2023/06/23 02:01:15;;;;;;;0.20;0.20;;;18.20;99.90;;;;;;5008807;28;20108;-78
2023/06/23 02:03:41;;;;;;;0.20;0.20;;;18.10;99.90;;;;;;5003739;28;20513;-78
2023/06/23 02:06:08;;;;;;;0.20;0.20;;;18.10;99.90;;;;;;5010001;28;20053;-78
2023/06/23 02:08:36;;;;;;;0.20;0.20;;;18.10;99.90;;;;;;5008663;28;20038;-78
2023/06/23 02:11:02;;;;;;;0.20;0.20;;;18.20;99.90;;;;;;5008987;28;20060;-79
2023/06/23 02:13:31;;;;;;;0.20;0.20;;;18.20;99.90;;;;;;5001970;28;20584;-79
2023/06/23 02:15:58;;;;;;;0.20;0.20;;;18.10;99.90;;;;;;5008178;28;20042;-79
2023/06/23 02:18:25;;;;;;;0.10;0.10;;;18.10;99.90;;;;;;4999521;28;20104;-79
2023/06/23 02:20:53;;;;;;;0.20;0.20;;;18.10;99.90;;;;;;5014157;28;20046;-79
2023/06/23 02:23:20;;;;;;;0.13;0.13;;;18.20;99.90;;;;;;5005975;28;20054;-79
2023/06/23 02:25:46;;;;;;;0.20;0.20;;;18.20;99.90;;;;;;5006943;28;20041;-79
2023/06/23 02:28:12;;;;;;;0.20;0.20;;;18.20;99.90;;;;;;4994997;28;20042;-78
2023/06/23 02:30:39;;;;;;;0.20;0.20;;;18.20;99.90;;;;;;5027093;28;20113;-79
2023/06/23 02:33:05;;;;;;;0.20;0.20;;;18.20;99.90;;;;;;5025791;28;20092;-79
2023/06/23 02:35:33;;;;;;;0.10;0.10;;;18.20;99.90;;;;;;5025130;28;20037;-79
2023/06/23 02:38:03;;;;;;;0.20;0.20;;;18.20;99.90;;;;;;5018081;28;20050;-79
2023/06/23 02:40:31;;;;;;;0.20;0.20;;;18.20;99.90;;;;;;4997106;28;20549;-79
2023/06/23 02:43:05;;;;;;;0.20;0.20;;;18.20;99.90;;;;;;5003714;28;20076;-80
2023/06/23 02:45:35;;;;;;;0.20;0.20;;;18.20;99.90;;;;;;5008461;28;20074;-79
2023/06/23 02:48:03;;;;;;;0.20;0.20;;;18.20;99.90;;;;;;5004484;28;20539;-79
2023/06/23 02:50:32;;;;;;;0.20;0.20;;;18.20;99.90;;;;;;5018702;28;20049;-79
2023/06/23 02:53:08;;;;;;;0.10;0.10;;;18.30;99.90;;;;;;5012061;28;20054;-79
2023/06/23 02:55:39;;;;;;;0.20;0.20;;;18.20;99.90;;;;;;5028359;28;20125;-79
2023/06/23 02:58:12;;;;;;;0.20;0.20;;;18.20;99.90;;;;;;5028723;28;20049;-79
2023/06/23 03:00:38;;;;;;;0.20;0.20;;;18.20;99.90;;;;;;5026408;28;20452;-79
2023/06/23 03:03:09;;;;;;;0.10;0.10;;;18.20;99.90;;;;;;4999541;28;20042;-80
2023/06/23 03:05:35;;;;;;;0.20;0.20;;;18.20;99.90;;;;;;5015655;28;20521;-79
2023/06/23 03:08:01;;;;;;;0.20;0.20;;;18.20;99.90;;;;;;5029817;28;20136;-79
2023/06/23 03:10:28;;;;;;;0.20;0.20;;;18.20;99.90;;;;;;5029203;28;20084;-78
2023/06/23 03:12:54;;;;;;;0.20;0.20;;;18.20;99.90;;;;;;5026075;28;20080;-79
2023/06/23 03:15:20;;;;;;;0.10;0.10;;;18.20;99.90;;;;;;5026989;28;20088;-79
2023/06/23 03:17:48;;;;;;;0.20;0.20;;;18.20;99.90;;;;;;5023012;28;20038;-78
2023/06/23 03:20:49;;;;;;;0.20;0.20;;;18.20;99.90;;;;;;5005622;28;20044;-78
2023/06/23 03:23:16;;;;;;;0.20;0.20;;;18.10;99.90;;;;;;4997621;28;20609;-78
2023/06/23 03:25:46;;;;;;;0.20;0.20;;;18.10;99.90;;;;;;5018800;28;20055;-79
2023/06/23 03:28:18;;;;;;;0.20;0.20;;;18.10;99.90;;;;;;5006472;28;20133;-79
2023/06/23 03:31:00;;;;;;;0.10;0.10;;;18.10;99.90;;;;;;5024747;28;20041;-79
2023/06/23 03:33:41;;;;;;;0.20;0.20;;;18.10;99.90;;;;;;5021724;28;20058;-79
2023/06/23 03:36:20;;;;;;;0.20;0.20;;;18.10;99.90;;;;;;5001486;28;20068;-79
2023/06/23 03:39:11;;;;;;;0.20;0.20;;;18.10;99.90;;;;;;5008785;28;20817;-79
2023/06/23 03:41:40;;;;;;;0.20;0.20;;;18.10;99.90;;;;;;4991998;28;20062;-77
2023/06/23 03:44:16;;;;;;;0.20;0.20;;;18.10;99.90;;;;;;5030526;28;20041;-79
2023/06/23 03:46:51;;;;;;;0.15;0.15;;;18.10;99.90;;;;;;5030165;28;20053;-79
2023/06/23 03:49:20;;;;;;;0.13;0.13;;;18.00;99.90;;;;;;5006897;28;20471;-78
2023/06/23 03:51:49;;;;;;;0.17;0.17;;;18.00;99.90;;;;;;5003235;28;20042;-79
2023/06/23 03:54:16;;;;;;;0.13;0.13;;;17.90;99.90;;;;;;5022332;28;20049;-79
2023/06/23 03:56:43;;;;;;;0.20;0.20;;;18.00;99.90;;;;;;5010289;28;20724;-78
2023/06/23 03:59:10;;;;;;;0.13;0.13;;;18.00;99.90;;;;;;5014174;28;20056;-79
2023/06/23 04:01:37;;;;;;;0.20;0.20;;;17.90;99.90;;;;;;5029156;28;20045;-79
2023/06/23 04:04:05;;;;;;;0.10;0.10;;;17.90;99.90;;;;;;5023017;28;20061;-78
2023/06/23 04:06:33;;;;;;;0.20;0.20;;;17.90;99.90;;;;;;5030720;28;20054;-79
2023/06/23 04:08:59;;;;;;;0.10;0.10;;;17.80;99.90;;;;;;5009994;28;20073;-79
2023/06/23 04:11:27;;;;;;;0.20;0.20;;;17.80;99.90;;;;;;5008162;28;20041;-78
2023/06/23 04:13:55;;;;;;;0.20;0.20;;;17.80;99.90;;;;;;5016509;28;20049;-79
2023/06/23 04:16:22;;;;;;;0.20;0.20;;;17.80;99.90;;;;;;5030504;28;20053;-79
2023/06/23 04:18:51;;;;;;;0.20;0.20;;;17.80;99.90;;;;;;5006734;28;20048;-80
2023/06/23 04:21:18;;;;;;;0.10;0.10;;;17.70;99.90;;;;;;5010550;28;20046;-80
2023/06/23 04:23:45;;;;;;;0.20;0.20;;;17.70;99.90;;;;;;5009249;28;20034;-80
2023/06/23 04:26:12;;;;;;;0.20;0.20;;;17.70;99.90;;;;;;5004588;28;20088;-80
2023/06/23 04:28:41;;;;;;;0.10;0.10;;;17.70;99.90;;;;;;4998307;28;20092;-79
2023/06/23 04:31:09;;;;;;;0.20;0.20;;;17.70;99.90;;;;;;5007555;28;20056;-80
2023/06/23 04:33:36;;;;;;;0.20;0.20;;;17.70;99.90;;;;;;5022003;28;20511;-78
2023/06/23 04:36:16;;;;;;;0.10;0.10;;;17.70;99.90;;;;;;5030208;28;20119;-78
2023/06/23 04:38:47;;;;;;;0.20;0.20;;;17.70;99.90;;;;;;5013211;28;20425;-78
2023/06/23 04:41:20;;;;;;;0.20;0.20;;;17.70;99.90;;;;;;5009302;28;20181;-79
2023/06/23 04:43:51;;;;;;;0.20;0.20;;;17.70;99.90;;;;;;5006468;28;20095;-78
2023/06/23 04:46:26;;;;;;;0.20;0.20;;;17.70;99.90;;;;;;5005558;28;20394;-78
2023/06/23 04:48:56;;;;;;;0.20;0.20;;;17.70;99.90;;;;;;5006515;28;20049;-79
2023/06/23 04:51:29;;;;;;;0.20;0.20;;;17.70;99.90;;;;;;5001807;28;20481;-79
2023/06/23 04:54:00;;;;;;;0.20;0.20;;;17.60;99.90;;;;;;5019605;28;20068;-79
2023/06/23 04:56:32;;;;;;;0.20;0.20;;;17.60;99.90;;;;;;5026603;28;20497;-79
2023/06/23 04:59:00;;;;;;;0.20;0.20;;;17.60;99.90;;;;;;5012779;28;20120;-78
2023/06/23 05:01:27;;;;;;;0.17;0.17;;;17.60;99.90;;;;;;5012323;28;20511;-79
2023/06/23 05:03:55;;;;;;;0.20;0.20;;;17.60;99.90;;;;;;5007669;28;20046;-79
2023/06/23 05:06:22;;;;;;;0.20;0.20;;;17.60;99.90;;;;;;5008613;28;20045;-78
2023/06/23 05:08:51;;;;;;;0.10;0.10;;;17.60;99.90;;;;;;5002282;28;20848;-78
2023/06/23 05:11:18;;;;;;;0.20;0.20;;;17.60;99.90;;;;;;5009739;28;20129;-78
2023/06/23 05:13:46;;;;;;;0.20;0.20;;;17.70;99.90;;;;;;5023946;28;20512;-79
2023/06/23 05:16:13;;;;;;;0.20;0.20;;;17.70;99.90;;;;;;5029079;28;20052;-78
2023/06/23 05:18:41;;;;;;;0.10;0.10;;;17.70;99.90;;;;;;5014320;28;20117;-79
2023/06/23 05:21:08;;;;;;;0.10;0.10;;;17.70;99.90;;;;;;5005214;28;20739;-79
2023/06/23 05:23:36;;;;;;;0.20;0.20;;;17.70;99.90;;;;;;5007304;28;20158;-78
2023/06/23 05:26:06;;;;;;;0.20;0.20;;;17.70;99.90;;;;;;5027190;28;20095;-80
2023/06/23 05:28:35;;;;;;;0.10;0.10;;;17.70;99.90;;;;;;5020867;28;20618;-79
2023/06/23 05:31:05;;;;;;;0.20;0.20;;;17.80;99.90;;;;;;5019388;28;20490;-79
2023/06/23 05:33:34;;;;;;;0.20;0.20;;;17.80;99.90;;;;;;5003086;28;20033;-80
2023/06/23 05:36:02;;;;;;;0.20;0.20;;;17.80;99.90;;;;;;5006346;28;20406;-79
2023/06/23 05:38:30;;;;;;;0.20;0.20;;;17.80;99.90;;;;;;5004726;28;20045;-80
2023/06/23 05:40:56;;;;;;;0.13;0.13;;;17.80;99.90;;;;;;5010472;28;20914;-79
2023/06/23 05:43:22;;;;;;;0.20;0.20;;;17.80;99.90;;;;;;5020582;28;20125;-80
2023/06/23 05:45:51;;;;;;;0.20;0.20;;;17.90;99.90;;;;;;5015763;28;20037;-79
2023/06/23 05:48:27;;;;;;;0.20;0.20;;;17.90;99.90;;;;;;5014948;28;20059;-79
2023/06/23 05:50:57;;;;;;;0.10;0.10;;;17.90;99.90;;;;;;5011432;28;20104;-79
2023/06/23 05:53:26;;;;;;;0.20;0.20;;;17.90;99.90;;;;;;4999656;28;20054;-78
2023/06/23 05:56:17;;;;;;;0.10;0.10;;;17.90;99.90;;;;;;5010691;28;20046;-79
2023/06/23 05:58:51;;;;;;;0.20;0.20;;;17.90;99.90;;;;;;5009013;28;20066;-79
2023/06/23 06:01:21;;;;;;;0.20;0.20;;;17.90;99.90;;;;;;5026882;28;20077;-79
2023/06/23 06:04:04;;;;;;;0.20;0.20;;;17.90;99.90;;;;;;5014197;28;20041;-80
2023/06/23 06:06:34;;;;;;;0.20;0.20;;;18.00;99.90;;;;;;5018171;28;20430;-80
2023/06/23 06:09:01;;;;;;;0.10;0.10;;;17.90;99.90;;;;;;5009651;28;20042;-79
2023/06/23 06:11:28;;;;;;;0.20;0.20;;;18.00;99.90;;;;;;5031050;28;20053;-79
2023/06/23 06:13:56;;;;;;;0.20;0.20;;;18.10;99.90;;;;;;5010548;28;20048;-79
2023/06/23 06:16:23;;;;;;;0.20;0.20;;;18.10;99.90;;;;;;5023167;28;20046;-79
2023/06/23 06:18:51;;;;;;;0.10;0.10;;;18.20;99.90;;;;;;5008121;28;20492;-79
2023/06/23 06:21:19;;;;;;;0.20;0.20;;;18.20;99.90;;;;;;5024963;28;20038;-79
2023/06/23 06:23:46;;;;;;;0.20;0.20;;;18.30;99.90;;;;;;4997061;28;20038;-78
2023/06/23 06:26:15;;;;;;;0.20;0.20;;;18.30;99.90;;;;;;5012717;28;20125;-79
2023/06/23 06:28:42;;;;;;;0.20;0.20;;;18.30;99.90;;;;;;5026444;28;20047;-79
2023/06/23 06:31:09;;;;;;;0.20;0.20;;;18.40;99.90;;;;;;5030592;28;20048;-79
2023/06/23 06:33:37;;;;;;;0.10;0.10;;;18.40;99.90;;;;;;5024863;28;20128;-80
2023/06/23 06:36:06;;;;;;;0.20;0.20;;;18.50;99.90;;;;;;5021655;28;20052;-81
2023/06/23 06:38:37;;;;;;;0.20;0.20;;;18.60;99.90;;;;;;5018946;28;20397;-80
2023/06/23 06:41:06;;;;;;;0.20;0.20;;;18.70;99.90;;;;;;5009002;28;20511;-79
2023/06/23 06:43:33;;;;;;;0.20;0.20;;;18.70;99.90;;;;;;5005505;28;20068;-80
2023/06/23 06:46:00;;;;;;;0.20;0.20;;;18.80;99.90;;;;;;5007002;28;20069;-79
2023/06/23 06:48:28;;;;;;;0.20;0.20;;;18.90;99.90;;;;;;4996817;28;20077;-80
2023/06/23 06:50:55;;;;;;;0.20;0.20;;;18.90;99.90;;;;;;4994203;28;20144;-77
2023/06/23 06:53:21;;;;;;;0.20;0.20;;;19.00;99.90;;;;;;5002663;28;20116;-80
2023/06/23 06:55:48;;;;;;;0.20;0.20;;;19.10;99.90;;;;;;4999374;28;20046;-80
2023/06/23 06:58:17;;;;;;;0.20;0.20;;;19.20;99.90;;;;;;5012787;28;20113;-81
2023/06/23 07:00:43;;;;;;;0.20;0.20;;;19.20;99.90;;;;;;5009690;28;20543;-80
2023/06/23 07:03:13;;;;;;;0.10;0.10;;;19.30;99.90;;;;;;5001584;28;20074;-80
2023/06/23 07:05:39;;;;;;;0.30;0.30;;;19.40;99.90;;;;;;5006565;28;20049;-79
2023/06/23 07:08:05;;;;;;;0.20;0.20;;;19.40;99.90;;;;;;5009214;28;20054;-80
2023/06/23 07:10:35;;;;;;;0.20;0.20;;;19.50;99.90;;;;;;5009276;28;20046;-79
2023/06/23 07:13:01;;;;;;;0.20;0.20;;;19.50;99.90;;;;;;5010793;28;20441;-80
2023/06/23 07:15:27;;;;;;;0.20;0.20;;;19.60;99.90;;;;;;5004584;28;20046;-79
2023/06/23 07:17:53;;;;;;;0.13;0.13;;;19.60;99.90;;;;;;5009804;28;20060;-80
2023/06/23 07:20:19;;;;;;;0.20;0.20;;;19.70;99.90;;;;;;5004890;28;20073;-80
2023/06/23 07:22:45;;;;;;;0.20;0.20;;;19.70;99.90;;;;;;5009620;28;20057;-79
2023/06/23 07:25:11;;;;;;;0.20;0.20;;;19.80;99.90;;;;;;5009684;28;20775;-78
2023/06/23 07:27:37;;;;;;;0.20;0.20;;;19.80;99.90;;;;;;4998999;28;20050;-79
2023/06/23 07:30:04;;;;;;;0.20;0.20;;;19.90;99.90;;;;;;5000481;28;20053;-79
2023/06/23 07:32:30;;;;;;;0.20;0.20;;;20.00;99.90;;;;;;5008859;28;20042;-79
2023/06/23 07:34:56;;;;;;;0.20;0.20;;;20.00;99.90;;;;;;5005590;28;20417;-80
2023/06/23 07:37:22;;;;;;;0.20;0.20;;;20.10;99.90;;;;;;5010723;28;20141;-79
2023/06/23 07:39:48;;;;;;;0.20;0.20;;;20.10;99.90;;;;;;5007027;28;20394;-80
2023/06/23 07:42:14;;;;;;;0.20;0.20;;;20.20;99.90;;;;;;5009812;28;20049;-79
2023/06/23 07:44:40;;;;;;;0.20;0.20;;;20.20;99.90;;;;;;5009235;28;20111;-79
2023/06/23 07:47:06;;;;;;;0.20;0.20;;;20.30;99.90;;;;;;5011425;28;20449;-79
2023/06/23 07:49:32;;;;;;;0.20;0.20;;;20.30;99.90;;;;;;5006320;28;20249;-81
2023/06/23 07:52:00;;;;;;;0.30;0.30;;;20.40;99.90;;;;;;5007146;28;20486;-79
2023/06/23 07:54:29;;;;;;;0.20;0.20;;;20.40;99.90;;;;;;5012660;28;20064;-79
2023/06/23 07:56:56;;;;;;;0.20;0.20;;;20.50;99.90;;;;;;5009740;28;20505;-80
2023/06/23 07:59:22;;;;;;;0.20;0.20;;;20.50;99.90;;;;;;5009831;28;20115;-79
2023/06/23 08:01:48;;;;;;;0.20;0.20;;;20.50;99.90;;;;;;5010682;28;20474;-80
2023/06/23 08:04:14;;;;;;;0.20;0.20;;;20.50;99.90;;;;;;5003845;28;20489;-80
2023/06/23 08:06:40;;;;;;;0.20;0.20;;;20.60;99.90;;;;;;4999949;28;20042;-80
2023/06/23 08:09:05;;;;;;;0.20;0.20;;;20.60;99.90;;;;;;5000800;28;20173;-78
2023/06/23 08:11:31;;;;;;;0.20;0.20;;;20.70;99.90;;;;;;5008395;28;20045;-78
2023/06/23 08:13:57;;;;;;;0.20;0.20;;;20.70;99.90;;;;;;5008247;28;20626;-79
2023/06/23 08:16:22;;;;;;;0.20;0.20;;;20.80;99.90;;;;;;5009292;28;20049;-80
2023/06/23 08:18:49;;;;;;;0.20;0.20;;;20.80;99.90;;;;;;4999529;28;20127;-79
2023/06/23 08:21:15;;;;;;;0.20;0.20;;;20.80;99.90;;;;;;5009850;28;20084;-79
2023/06/23 08:23:44;;;;;;;0.20;0.20;;;20.90;99.90;;;;;;5009897;28;20037;-79
2023/06/23 08:26:10;;;;;;;0.20;0.20;;;20.90;99.90;;;;;;5009114;28;20048;-79
2023/06/23 08:28:36;;;;;;;0.20;0.20;;;21.00;99.90;;;;;;5006044;28;20049;-79
2023/06/23 08:31:02;;;;;;;0.20;0.20;;;21.00;99.90;;;;;;5001937;28;20038;-78
2023/06/23 08:33:27;;;;;;;0.20;0.20;;;21.10;99.90;;;;;;5006346;28;20133;-79
2023/06/23 08:35:53;;;;;;;0.20;0.20;;;21.10;99.90;;;;;;5009571;28;20061;-79
2023/06/23 08:38:19;;;;;;;0.20;0.20;;;21.10;99.90;;;;;;5008861;28;20129;-78
2023/06/23 08:40:47;;;;;;;0.20;0.20;;;21.20;99.90;;;;;;5004185;28;20116;-80
2023/06/23 08:43:13;;;;;;;0.20;0.20;;;21.20;99.90;;;;;;5008226;28;20053;-79
2023/06/23 08:45:49;;;;;;;0.20;0.20;;;21.30;99.90;;;;;;5003142;28;20049;-79
2023/06/23 08:48:17;;;;;;;0.20;0.20;;;21.30;99.90;;;;;;5008810;28;20042;-78
2023/06/23 08:50:43;;;;;;;0.20;0.20;;;21.30;99.90;;;;;;5008813;28;20586;-79
2023/06/23 08:53:09;;;;;;;0.20;0.20;;;21.40;99.90;;;;;;5009534;28;20061;-79
2023/06/23 08:55:34;;;;;;;0.20;0.20;;;21.40;99.90;;;;;;5009906;28;20049;-80
2023/06/23 08:58:03;;;;;;;0.20;0.20;;;21.50;99.90;;;;;;5006939;28;20116;-79
2023/06/23 09:00:29;;;;;;;0.20;0.20;;;21.60;99.90;;;;;;5007839;28;20587;-79
2023/06/23 09:02:58;;;;;;;0.20;0.20;;;21.60;99.90;;;;;;5007367;28;20050;-79
2023/06/23 09:05:23;;;;;;;0.20;0.20;;;21.60;99.90;;;;;;5006403;28;20045;-79
2023/06/23 09:07:49;;;;;;;0.20;0.20;;;21.70;99.90;;;;;;5011392;28;20125;-80
2023/06/23 09:10:17;;;;;;;0.20;0.20;;;21.70;99.90;;;;;;5010278;28;20038;-80
2023/06/23 09:13:24;;;;;;;0.20;0.20;;;21.70;99.90;;;;;;5008364;28;20046;-80
2023/06/23 09:15:51;;;;;;;0.20;0.20;;;21.80;99.90;;;;;;5004501;28;20483;-80
2023/06/23 09:18:18;;;;;;;0.20;0.20;;;21.80;99.90;;;;;;4993937;28;20147;-80
2023/06/23 09:20:49;;;;;;;0.20;0.20;;;21.80;99.90;;;;;;4995017;28;20050;-79
2023/06/23 09:23:16;;;;;;;0.20;0.20;;;21.90;99.90;;;;;;4990182;28;20042;-80
2023/06/23 09:25:50;;;;;;;0.20;0.20;;;22.00;99.90;;;;;;5003634;28;20049;-77
2023/06/23 09:28:24;;;;;;;0.20;0.20;;;22.00;99.90;;;;;;5004854;28;20034;-78
2023/06/23 09:30:51;;;;;;;0.20;0.20;;;22.00;99.90;;;;;;4989591;28;20121;-80
2023/06/23 09:33:18;;;;;;;0.20;0.20;;;22.00;99.90;;;;;;4996084;28;20045;-78
2023/06/23 09:35:48;;;;;;;0.20;0.20;;;22.10;99.90;;;;;;4999796;28;20077;-79
2023/06/23 09:38:17;;;;;;;0.20;0.20;;;22.10;99.90;;;;;;5002700;28;20049;-79
2023/06/23 09:40:42;;;;;;;0.20;0.20;;;22.20;99.90;;;;;;5008674;28;20133;-79
2023/06/23 09:43:08;;;;;;;0.20;0.20;;;22.20;99.90;;;;;;5029378;28;20124;-78
2023/06/23 09:45:34;;;;;;;0.20;0.20;;;22.20;99.90;;;;;;5024525;28;20630;-79
2023/06/23 09:48:00;;;;;;;0.20;0.20;;;22.20;99.90;;;;;;5004342;28;20577;-79
2023/06/23 09:50:27;;;;;;;0.20;0.20;;;22.20;99.90;;;;;;5008265;28;20080;-79
2023/06/23 09:53:05;;;;;;;0.20;0.20;;;22.30;99.90;;;;;;5006380;28;20169;-78
2023/06/23 09:55:31;;;;;;;0.20;0.20;;;22.30;99.90;;;;;;5007104;28;20053;-79
2023/06/23 09:58:03;;;;;;;0.20;0.20;;;22.30;99.90;;;;;;5005117;28;20050;-79
2023/06/23 10:00:32;;;;;;;0.20;0.20;;;22.30;99.90;;;;;;5006505;28;20397;-79
2023/06/23 10:03:02;;;;;;;0.20;0.20;;;22.40;99.90;;;;;;5011857;28;20086;-80
2023/06/23 10:05:36;;;;;;;0.20;0.20;;;22.40;99.90;;;;;;5008206;28;20164;-79
2023/06/23 10:08:11;;;;;;;0.20;0.20;;;22.40;99.90;;;;;;5011062;28;20042;-78
2023/06/23 10:10:46;;;;;;;0.20;0.20;;;22.50;99.90;;;;;;4994849;28;20038;-79
2023/06/23 10:13:12;;;;;;;0.20;0.20;;;22.50;99.90;;;;;;5009795;28;20129;-79
2023/06/23 10:15:41;;;;;;;0.20;0.20;;;22.50;99.90;;;;;;5004642;28;20125;-78
2023/06/23 10:18:11;;;;;;;0.20;0.20;;;22.60;99.90;;;;;;5011977;28;20053;-79
2023/06/23 10:20:38;;;;;;;0.20;0.20;;;22.60;99.90;;;;;;5014913;28;20039;-79
2023/06/23 10:23:04;;;;;;;0.20;0.20;;;22.70;99.90;;;;;;5024822;28;20135;-79
2023/06/23 10:25:34;;;;;;;0.20;0.20;;;22.70;99.90;;;;;;5009456;28;20085;-79
2023/06/23 10:28:08;;;;;;;0.20;0.20;;;22.80;99.90;;;;;;5011795;28;20049;-79
2023/06/23 10:30:34;;;;;;;0.20;0.20;;;22.80;99.90;;;;;;5005540;28;20053;-78
2023/06/23 10:33:02;;;;;;;0.20;0.20;;;22.90;99.90;;;;;;5009998;28;20046;-80
2023/06/23 10:35:30;;;;;;;0.20;0.20;;;22.90;99.90;;;;;;5008918;28;20045;-78
2023/06/23 10:38:06;;;;;;;0.20;0.20;;;23.00;99.90;;;;;;5008237;28;20080;-79
2023/06/23 10:40:38;;;;;;;0.20;0.20;;;23.10;99.90;;;;;;5004412;28;20049;-80
2023/06/23 10:43:06;;;;;;;0.20;0.20;;;23.10;99.90;;;;;;5003094;28;20084;-79
2023/06/23 10:45:32;;;;;;;0.20;0.20;;;23.10;99.90;;;;;;5005126;28;20117;-79
2023/06/23 10:47:58;;;;;;;0.20;0.20;;;23.20;99.90;;;;;;5006338;28;20125;-79
2023/06/23 10:50:29;;;;;;;0.20;0.20;;;23.20;99.90;;;;;;5004476;28;20148;-77
2023/06/23 10:52:56;;;;;;;0.20;0.20;;;23.20;99.90;;;;;;5011002;28;20088;-83
2023/06/23 10:55:35;;;;;;;0.20;0.20;;;23.30;99.90;;;;;;5021901;28;20073;-77
2023/06/23 10:58:28;;;;;;;0.20;0.20;;;23.30;99.90;;;;;;5011803;28;20076;-77
2023/06/23 11:00:53;;;;;;;0.22;0.22;;;23.30;99.90;;;;;;5010496;28;20050;-78
2023/06/23 11:03:31;;;;;;;0.20;0.20;;;23.30;99.90;;;;;;5011393;28;20085;-77
2023/06/23 11:05:59;;;;;;;0.20;0.20;;;23.30;99.90;;;;;;5008002;28;20124;-78
2023/06/23 11:08:29;;;;;;;0.20;0.20;;;23.40;99.90;;;;;;5011488;28;20100;-78
2023/06/23 11:11:02;;;;;;;0.20;0.20;;;23.40;99.90;;;;;;5013116;28;20137;-79
2023/06/23 11:13:44;;;;;;;0.20;0.20;;;23.40;99.90;;;;;;5010079;28;20042;-78
2023/06/23 11:16:17;;;;;;;0.20;0.20;;;23.50;99.90;;;;;;5011150;28;20048;-79
2023/06/23 11:18:54;;;;;;;0.20;0.20;;;23.50;99.90;;;;;;5008770;28;20054;-79
2023/06/23 11:21:30;;;;;;;0.20;0.20;;;23.60;99.90;;;;;;5012027;28;20046;-78
2023/06/23 11:24:19;;;;;;;0.20;0.20;;;23.60;99.90;;;;;;5011214;28;20367;-78
2023/06/23 11:27:02;;;;;;;0.20;0.20;;;23.60;99.90;;;;;;5009634;28;20054;-79
2023/06/23 11:29:28;;;;;;;0.20;0.20;;;23.60;99.90;;;;;;5008290;28;20367;-78
2023/06/23 11:32:12;;;;;;;0.20;0.20;;;23.70;99.90;;;;;;5011356;28;20052;-78
2023/06/23 11:34:56;;;;;;;0.20;0.20;;;23.80;99.90;;;;;;5006238;28;20052;-78
2023/06/23 11:37:25;;;;;;;0.20;0.20;;;23.90;99.90;;;;;;5008105;28;20592;-79
2023/06/23 11:39:54;;;;;;;0.20;0.20;;;24.00;99.90;;;;;;5006754;28;20078;-78
2023/06/23 11:42:20;;;;;;;0.20;0.20;;;24.10;99.90;;;;;;5011388;28;20666;-78
2023/06/23 11:44:47;;;;;;;0.20;0.20;;;24.10;99.90;;;;;;5009485;28;20038;-79
2023/06/23 11:47:13;;;;;;;0.20;0.20;;;24.20;99.90;;;;;;5008989;28;20050;-75
2023/06/23 11:49:39;;;;;;;0.20;0.20;;;24.10;99.90;;;;;;5002848;28;20088;-78
2023/06/23 11:52:05;;;;;;;0.20;0.20;;;24.20;99.90;;;;;;5009370;28;20049;-76
2023/06/23 11:54:34;;;;;;;0.20;0.20;;;24.20;99.90;;;;;;4998185;28;20057;-76
2023/06/23 11:57:00;;;;;;;0.20;0.20;;;24.30;99.90;;;;;;5008321;28;20053;-77
2023/06/23 11:59:26;;;;;;;0.20;0.20;;;24.30;99.90;;;;;;5003178;28;20129;-77
2023/06/23 12:01:52;;;;;;;0.20;0.20;;;24.40;99.90;;;;;;5006291;28;20050;-77
2023/06/23 12:04:22;;;;;;;0.20;0.20;;;24.40;99.80;;;;;;5009965;28;20136;-78
2023/06/23 12:06:51;;;;;;;0.20;0.20;;;24.40;99.30;;;;;;5011164;28;20046;-77
2023/06/23 12:09:20;;;;;;;0.20;0.20;;;24.40;98.70;;;;;;5009535;28;20112;-78
2023/06/23 12:11:47;;;;;;;0.20;0.20;;;24.40;98.50;;;;;;5009838;28;20038;-77
2023/06/23 12:14:13;;;;;;;0.20;0.20;;;24.50;98.20;;;;;;5011388;28;20077;-77
2023/06/23 12:16:38;;;;;;;0.20;0.20;;;24.50;97.80;;;;;;5009751;28;20069;-78
2023/06/23 12:19:04;;;;;;;0.20;0.20;;;24.50;97.30;;;;;;5009539;28;20042;-78
2023/06/23 12:21:30;;;;;;;0.20;0.20;;;24.50;96.90;;;;;;5008816;28;20065;-77
2023/06/23 12:23:56;;;;;;;0.20;0.20;;;24.50;96.70;;;;;;5009332;28;20045;-77
2023/06/23 12:26:22;;;;;;;0.20;0.20;;;24.50;96.70;;;;;;5007668;28;20383;-78
2023/06/23 12:28:48;;;;;;;0.20;0.20;;;24.60;96.70;;;;;;5010131;28;20052;-77
2023/06/23 12:31:27;;;;;;;0.20;0.20;;;24.60;96.70;;;;;;5008993;28;20054;-77
2023/06/23 12:33:54;;;;;;;0.20;0.20;;;24.70;96.40;;;;;;5008178;28;20070;-78
2023/06/23 12:36:19;;;;;;;0.20;0.20;;;24.70;95.90;;;;;;5007300;28;20925;-76
2023/06/23 12:38:52;;;;;;;0.20;0.20;;;24.90;96.20;;;;;;5010066;28;20132;-77
2023/06/23 12:41:20;;;;;;;0.20;0.20;;;24.90;96.40;;;;;;5007032;28;20108;-77
2023/06/23 12:43:52;;;;;;;0.20;0.20;;;25.00;96.50;;;;;;5009218;28;20117;-78
2023/06/23 12:46:20;;;;;;;0.20;0.20;;;25.00;95.80;;;;;;5010280;28;20402;-76
2023/06/23 12:48:48;;;;;;;0.20;0.20;;;25.00;95.50;;;;;;5007679;28;20433;-77
2023/06/23 12:51:14;;;;;;;0.20;0.20;;;25.00;95.30;;;;;;5007901;28;20046;-77
2023/06/23 12:53:40;;;;;;;0.20;0.20;;;25.00;95.60;;;;;;5008329;28;20045;-77
2023/06/23 12:56:06;;;;;;;0.20;0.20;;;25.10;95.80;;;;;;5005993;28;20061;-78
2023/06/23 12:58:32;;;;;;;0.20;0.20;;;25.10;95.70;;;;;;5009006;28;20046;-78
2023/06/23 13:00:59;;;;;;;0.20;0.20;;;25.20;95.00;;;;;;5007922;28;20047;-77